createdAt,value
2023-02-21T00:02:25.588Z,99394.09
2023-02-21T00:07:50.932Z,99391.84
2023-02-21T00:13:16.171Z,99382.16
2023-02-21T00:18:41.536Z,99366.91
2023-02-21T00:24:06.354Z,99374.34
2023-02-21T00:29:31.908Z,99371.09
2023-02-21T00:34:57.403Z,99370.66
2023-02-21T00:40:22.679Z,99356.00
2023-02-21T00:45:47.736Z,99365.13
2023-02-21T00:51:12.891Z,99358.09
2023-02-21T00:56:38.196Z,99365.50
2023-02-21T01:02:03.395Z,99373.84
2023-02-21T01:07:28.171Z,99370.59
2023-02-21T01:12:53.034Z,99364.91
2023-02-21T01:18:18.331Z,99350.59
2023-02-21T01:23:43.661Z,99352.66
2023-02-21T01:29:09.896Z,99366.47
2023-02-21T01:34:36.310Z,99356.19
2023-02-21T01:40:01.624Z,99349.28
2023-02-21T01:45:41.858Z,99352.53
2023-02-21T01:51:07.389Z,99352.72
2023-02-21T01:56:34.257Z,99346.88
2023-02-21T02:02:06.442Z,99362.38
2023-02-21T02:07:31.828Z,99369.19
2023-02-21T02:12:48.728Z,99360.66
2023-02-21T02:18:13.459Z,99358.56
2023-02-21T02:23:46.515Z,99371.81
2023-02-21T02:29:21.265Z,99366.84
2023-02-21T02:34:54.622Z,99361.38
2023-02-21T02:40:51.074Z,99349.91
2023-02-21T02:46:19.869Z,99347.31
2023-02-21T02:51:27.578Z,99353.13
2023-02-21T02:56:39.554Z,99353.13
2023-02-21T03:02:16.917Z,99343.59
2023-02-21T03:07:48.263Z,99341.63
2023-02-21T03:13:05.336Z,99332.38
2023-02-21T03:18:43.728Z,99327.00
2023-02-21T03:23:53.795Z,99308.09
2023-02-21T03:28:59.975Z,99299.69
2023-02-21T03:34:05.976Z,99306.97
2023-02-21T03:39:11.551Z,99294.13
2023-02-21T03:44:16.927Z,99293.16
2023-02-21T03:49:22.761Z,99286.50
2023-02-21T03:54:28.415Z,99286.03
2023-02-21T03:59:39.154Z,99278.03
2023-02-21T04:04:44.725Z,99293.34
2023-02-21T04:09:55.368Z,99306.81
2023-02-21T04:15:18.105Z,99296.59
2023-02-21T04:20:26.274Z,99295.22
2023-02-21T04:25:37.054Z,99283.09
2023-02-21T04:30:51.950Z,99282.13
2023-02-21T04:35:58.881Z,99281.72
2023-02-21T04:41:14.413Z,99291.66
2023-02-21T04:46:19.925Z,99279.66
2023-02-21T04:51:25.724Z,99280.94
2023-02-21T04:56:30.269Z,99269.72
2023-02-21T05:01:35.420Z,99256.63
2023-02-21T05:06:43.077Z,99256.44
2023-02-21T05:11:47.223Z,99253.22
2023-02-21T05:16:51.438Z,99247.56
2023-02-21T05:22:00.043Z,99240.16
2023-02-21T05:27:04.042Z,99245.75
2023-02-21T05:32:08.116Z,99243.09
2023-02-21T05:37:12.739Z,99233.00
2023-02-21T05:42:17.121Z,99221.09
2023-02-21T05:47:21.248Z,99221.16
2023-02-21T05:52:25.441Z,99212.84
2023-02-21T05:57:29.521Z,99199.22
2023-02-21T06:02:37.895Z,99201.13
2023-02-21T06:07:44.242Z,99194.63
2023-02-21T06:12:51.435Z,99190.47
2023-02-21T06:17:58.793Z,99186.63
2023-02-21T06:23:04.725Z,99171.38
2023-02-21T06:28:09.372Z,99168.75
2023-02-21T06:33:13.458Z,99155.78
2023-02-21T06:38:17.734Z,99151.50
2023-02-21T06:43:21.885Z,99154.97
2023-02-21T06:48:25.902Z,99144.03
2023-02-21T06:53:29.928Z,99144.44
2023-02-21T06:58:34.022Z,99138.56
2023-02-21T07:03:43.740Z,99120.72
2023-02-21T07:08:48.387Z,99111.94
2023-02-21T07:13:57.299Z,99108.34
2023-02-21T07:19:01.323Z,99087.88
2023-02-21T07:24:05.607Z,99071.47
2023-02-21T07:29:09.951Z,99068.88
2023-02-21T07:34:15.703Z,99050.81
2023-02-21T07:39:19.807Z,99054.16
2023-02-21T07:44:24.100Z,99043.63
2023-02-21T07:49:28.203Z,99020.41
2023-02-21T07:54:37.146Z,99036.00
2023-02-21T07:59:41.128Z,98987.91
2023-02-21T08:04:45.267Z,98994.41
2023-02-21T08:09:49.436Z,98992.00
2023-02-21T08:14:53.502Z,98978.09
2023-02-21T08:19:57.608Z,98962.56
2023-02-21T08:25:01.580Z,98956.63
2023-02-21T08:30:08.702Z,98948.19
2023-02-21T08:35:15.696Z,98934.72
2023-02-21T08:40:20.679Z,98900.78
2023-02-21T08:45:26.214Z,98910.38
2023-02-21T08:50:30.495Z,98895.34
2023-02-21T08:55:36.939Z,98895.25
2023-02-21T09:00:41.116Z,98879.53
2023-02-21T09:05:45.401Z,98850.78
2023-02-21T09:10:50.520Z,98841.78
2023-02-21T09:15:57.820Z,98828.63
2023-02-21T09:21:01.990Z,98826.38
2023-02-21T09:26:06.216Z,98813.38
2023-02-21T09:31:10.639Z,98792.63
2023-02-21T09:36:14.715Z,98786.41
2023-02-21T09:41:20.390Z,98782.88
2023-02-21T09:46:36.395Z,98762.97
2023-02-21T09:51:42.869Z,98745.25
2023-02-21T09:56:50.184Z,98733.41
2023-02-21T10:02:37.164Z,98710.19
2023-02-21T10:07:59.438Z,98704.31
2023-02-21T10:13:03.366Z,98693.69
2023-02-21T10:18:23.926Z,98668.84
2023-02-21T10:23:36.173Z,98665.47
2023-02-21T10:28:40.723Z,98667.47
2023-02-21T10:33:45.092Z,98652.31
2023-02-21T10:39:04.263Z,98632.22
2023-02-21T10:44:22.749Z,98606.28
2023-02-21T10:49:41.322Z,98601.13
2023-02-21T10:55:31.741Z,98603.44
2023-02-21T11:00:48.697Z,98593.09
2023-02-21T11:05:58.410Z,98580.56
2023-02-21T11:11:03.305Z,98564.06
2023-02-21T11:16:17.641Z,98557.13
2023-02-21T11:21:21.707Z,98540.97
2023-02-21T11:26:28.476Z,98527.91
2023-02-21T11:31:35.016Z,98517.75
2023-02-21T11:36:44.609Z,98505.78
2023-02-21T11:42:00.762Z,98480.03
2023-02-21T11:47:26.480Z,98470.97
2023-02-21T11:52:46.218Z,98471.94
2023-02-21T11:58:06.974Z,98451.84
2023-02-21T12:03:14.016Z,98448.34
2023-02-21T12:08:39.028Z,98447.19
2023-02-21T12:14:22.805Z,98440.63
2023-02-21T12:19:41.945Z,98435.84
2023-02-21T12:25:01.093Z,98426.16
2023-02-21T12:30:31.449Z,98407.47
2023-02-21T12:35:53.546Z,98396.47
2023-02-21T12:41:16.228Z,98378.16
2023-02-21T12:46:50.131Z,98366.97
2023-02-21T12:52:17.710Z,98351.06
2023-02-21T12:57:43.836Z,98339.53
2023-02-21T13:02:59.585Z,98326.31
2023-02-21T13:08:23.625Z,98321.53
2023-02-21T13:13:35.214Z,98298.34
2023-02-21T13:19:03.500Z,98295.56
2023-02-21T13:24:15.616Z,98284.22
2023-02-21T13:29:40.038Z,98277.13
2023-02-21T13:34:48.960Z,98273.50
2023-02-21T13:40:01.831Z,98257.97
2023-02-21T13:45:09.570Z,98252.78
2023-02-21T13:50:38.493Z,98241.22
2023-02-21T13:56:08.738Z,98228.22
2023-02-21T14:01:42.933Z,98219.94
2023-02-21T14:06:57.985Z,98215.09
2023-02-21T14:12:05.695Z,98205.88
2023-02-21T14:17:14.661Z,98191.97
2023-02-21T14:22:31.449Z,98190.47
2023-02-21T14:27:38.966Z,98182.84
2023-02-21T14:32:55.934Z,98179.41
2023-02-21T14:38:03.262Z,98173.28
2023-02-21T14:43:32.389Z,98167.56
2023-02-21T14:49:13.598Z,98162.06
2023-02-21T14:55:06.969Z,98167.53
2023-02-21T15:00:21.529Z,98165.75
2023-02-21T15:05:40.506Z,98158.69
2023-02-21T15:10:50.414Z,98150.50
2023-02-21T15:16:33.685Z,98151.28
2023-02-21T15:21:39.097Z,98145.94
2023-02-21T15:26:44.716Z,98141.34
2023-02-21T15:31:53.247Z,98134.94
2023-02-21T15:37:04.269Z,98137.00
2023-02-21T15:42:12.208Z,98142.13
2023-02-21T15:47:44.798Z,98144.19
2023-02-21T15:53:15.912Z,98105.28
2023-02-21T15:58:23.330Z,98141.28
2023-02-21T16:03:47.507Z,98143.53
2023-02-21T16:09:26.124Z,98133.72
2023-02-21T16:14:46.097Z,98119.47
2023-02-21T16:19:56.585Z,98117.25
2023-02-21T16:25:13.643Z,98113.03
2023-02-21T16:30:30.100Z,98110.59
2023-02-21T16:35:35.779Z,98102.41
2023-02-21T16:40:40.866Z,98093.59
2023-02-21T16:45:45.979Z,98105.38
2023-02-21T16:50:52.340Z,98095.25
2023-02-21T16:55:59.857Z,98100.66
2023-02-21T17:01:15.700Z,98101.25
2023-02-21T17:06:24.478Z,98099.91
2023-02-21T17:11:30.770Z,98101.91
2023-02-21T17:16:36.481Z,98086.19
2023-02-21T17:21:42.647Z,98099.44
2023-02-21T17:26:48.394Z,98099.09
2023-02-21T17:31:59.306Z,98097.81
2023-02-21T17:37:05.063Z,98097.50
2023-02-21T17:42:10.755Z,98096.00
2023-02-21T17:47:16.101Z,98098.00
2023-02-21T17:52:21.969Z,98096.88
2023-02-21T17:57:26.897Z,98098.13
2023-02-21T18:02:32.331Z,98106.97
2023-02-21T18:07:37.784Z,98107.53
2023-02-21T18:12:43.118Z,98108.13
2023-02-21T18:17:48.610Z,98105.97
2023-02-21T18:22:53.976Z,98110.66
2023-02-21T18:27:59.366Z,98108.94
2023-02-21T18:33:04.904Z,98111.72
2023-02-21T18:38:10.362Z,98128.53
2023-02-21T18:43:25.609Z,98129.78
2023-02-21T18:48:30.975Z,98124.16
2023-02-21T18:53:36.259Z,98135.41
2023-02-21T18:58:41.826Z,98146.19
2023-02-21T19:03:47.150Z,98145.19
2023-02-21T19:08:54.827Z,98134.84
2023-02-21T19:14:00.218Z,98137.25
2023-02-21T19:19:06.007Z,98141.28
2023-02-21T19:24:11.616Z,98143.25
2023-02-21T19:29:17.242Z,98152.19
2023-02-21T19:34:22.705Z,98144.59
2023-02-21T19:39:28.282Z,98150.56
2023-02-21T19:44:33.714Z,98139.09
2023-02-21T19:49:39.011Z,98161.41
2023-02-21T19:54:44.653Z,98146.69
2023-02-21T19:59:50.054Z,98168.03
2023-02-21T20:04:55.690Z,98162.06
2023-02-21T20:10:01.011Z,98174.81
2023-02-21T20:15:11.265Z,98175.03
2023-02-21T20:20:16.985Z,98187.84
2023-02-21T20:25:23.173Z,98181.91
2023-02-21T20:30:28.790Z,98190.06
2023-02-21T20:35:34.524Z,98188.47
2023-02-21T20:40:40.852Z,98200.81
2023-02-21T20:45:46.268Z,98186.06
2023-02-21T20:50:52.418Z,98193.03
2023-02-21T20:55:59.376Z,98198.47
2023-02-21T21:01:05.026Z,98213.78
2023-02-21T21:06:14.003Z,98212.41
2023-02-21T21:11:19.526Z,98223.22
2023-02-21T21:16:25.093Z,98227.25
2023-02-21T21:21:33.215Z,98219.47
2023-02-21T21:26:53.393Z,98243.19
2023-02-21T21:31:59.708Z,98238.81
2023-02-21T21:37:06.411Z,98249.59
2023-02-21T21:42:11.749Z,98266.13
2023-02-21T21:47:17.229Z,98273.09
2023-02-21T21:52:24.340Z,98266.13
2023-02-21T21:57:29.730Z,98269.72
2023-02-21T22:02:35.194Z,98266.31
2023-02-21T22:07:42.469Z,98271.09
2023-02-21T22:12:50.550Z,98292.63
2023-02-21T22:17:57.026Z,98278.47
2023-02-21T22:23:06.170Z,98300.94
2023-02-21T22:28:13.587Z,98294.56
2023-02-21T22:33:22.450Z,98309.09
2023-02-21T22:38:27.998Z,98318.66
2023-02-21T22:43:33.396Z,98318.84
2023-02-21T22:48:40.689Z,98327.63
2023-02-21T22:53:51.445Z,98337.94
2023-02-21T22:58:58.416Z,98355.88
2023-02-21T23:04:37.651Z,98358.44
2023-02-21T23:09:45.984Z,98374.78
2023-02-21T23:14:52.072Z,98371.59
2023-02-21T23:19:57.638Z,98378.53
2023-02-21T23:25:04.500Z,98379.69
2023-02-21T23:30:10.769Z,98387.06
2023-02-21T23:35:42.187Z,98402.00
2023-02-21T23:40:50.805Z,98405.34
2023-02-21T23:45:57.986Z,98415.00
2023-02-21T23:51:03.343Z,98421.47
2023-02-21T23:56:13.757Z,98436.97
